近畿・中四国TAF電文


関空(RJBB)

大阪(RJOO)

新広島(RJOA)
5/25 8h
TAF RJOA 242305Z 2500/2606 14006KT 9999 FEW035=

岡山(RJOB)
5/25 8h
TAF RJOB 242305Z 2500/2606 03010KT 9999 FEW030 BECMG 2521/2600
12006KT=

出雲(RJOC)
5/25 8h
TAF RJOC 242305Z 2500/2606 07015KT 9999 FEW025=

美保(RJOH)
5/25 8h
TAF RJOH 242305Z 2500/2606 06010KT 9999 FEW025=

高松(RJOT)
5/25 8h
TAF RJOT 242305Z 2500/2606 04006KT 9999 FEW030=

松山(RJOM)
5/25 8h
TAF RJOM 242305Z 2500/2606 36014KT 9999 FEW035 BECMG 2509/2511
12005KT BECMG 2521/2600 36012KT=

高知(RJOK)
5/25 8h
TAF RJOK 242305Z 2500/2606 35012KT 9999 FEW035 BECMG 2503/2505
18010KT BECMG 2510/2512 35005KT BECMG 2521/2600 17007KT=
Copyright(c) 2014 International Meteorological & Oceanographic Consultants Co,.Ltd. All Rights Reserved. Design by http://f-tpl.com